Time;durP1;ratioP1;P1;durP2;ratioP2;P2;SDS_P1;SDS_P2;PMS_P1;PMS_P2;Temp;Humidity;BMP_temperature;BMP_pressure;BME280_temperature;BME280_humidity;BME280_pressure;Samples;Min_cycle;Max_cycle;Signal;HPM_P1;HPM_P2
2022/10/31 00:01:33;;;;;;;22.05;11.07;;;12.70;99.90;;;;;;5024336;28;20021;-93
2022/10/31 00:03:59;;;;;;;15.93;10.63;;;12.70;99.90;;;;;;5008543;28;20057;-94
2022/10/31 00:06:24;;;;;;;15.32;10.23;;;12.70;99.90;;;;;;5008322;28;20120;-94
2022/10/31 00:08:59;;;;;;;18.35;10.32;;;12.70;99.90;;;;;;5026068;28;20026;-94
2022/10/31 00:11:26;;;;;;;19.67;10.65;;;12.60;99.90;;;;;;5026966;28;20022;-94
2022/10/31 00:13:52;;;;;;;19.38;10.95;;;12.60;99.90;;;;;;5026309;28;20037;-94
2022/10/31 00:16:23;;;;;;;22.20;11.32;;;12.60;99.90;;;;;;5027346;28;20033;-94
2022/10/31 00:18:53;;;;;;;17.70;10.88;;;12.60;99.90;;;;;;5026608;28;20026;-93
2022/10/31 00:21:20;;;;;;;18.20;10.70;;;12.60;99.90;;;;;;5025670;28;20033;-93
2022/10/31 00:23:45;;;;;;;19.15;11.00;;;12.60;99.90;;;;;;5023155;28;20037;-94
2022/10/31 00:26:11;;;;;;;18.83;10.55;;;12.60;99.90;;;;;;5023582;28;20393;-94
2022/10/31 00:28:37;;;;;;;17.88;10.63;;;12.60;99.90;;;;;;5007895;28;20252;-94
2022/10/31 00:31:05;;;;;;;13.15;9.15;;;12.60;99.90;;;;;;5025331;28;20108;-93
2022/10/31 00:33:32;;;;;;;16.65;10.25;;;12.50;99.90;;;;;;5009822;28;20033;-94
2022/10/31 00:35:58;;;;;;;16.55;9.18;;;12.50;99.90;;;;;;5012753;28;20106;-93
2022/10/31 00:38:23;;;;;;;15.50;9.48;;;12.40;99.90;;;;;;5010684;28;20140;-94
2022/10/31 00:40:49;;;;;;;21.20;10.93;;;12.30;99.90;;;;;;5008678;28;20087;-94
2022/10/31 00:43:15;;;;;;;15.98;10.50;;;12.20;99.90;;;;;;5006662;28;20030;-94
2022/10/31 00:45:42;;;;;;;20.23;10.68;;;12.20;99.90;;;;;;5009329;28;20033;-94
2022/10/31 00:48:08;;;;;;;18.13;10.43;;;12.30;99.90;;;;;;5008646;28;20044;-94
2022/10/31 00:50:33;;;;;;;24.83;12.27;;;12.20;99.90;;;;;;5007627;28;20029;-93
2022/10/31 00:52:59;;;;;;;24.77;13.07;;;12.20;99.90;;;;;;5007811;28;20064;-95
2022/10/31 00:55:24;;;;;;;18.98;11.88;;;12.20;99.90;;;;;;5007982;28;20045;-94
2022/10/31 00:57:50;;;;;;;24.55;11.88;;;12.30;99.90;;;;;;5008263;28;20033;-95
2022/10/31 01:00:16;;;;;;;24.85;12.75;;;12.30;99.90;;;;;;5023335;28;20026;-94
2022/10/31 01:02:41;;;;;;;22.30;13.45;;;12.30;99.90;;;;;;5025093;28;20029;-94
2022/10/31 01:05:07;;;;;;;23.83;13.25;;;12.30;99.90;;;;;;5006584;28;20499;-94
2022/10/31 01:07:36;;;;;;;25.08;13.27;;;12.30;99.90;;;;;;5026816;28;20050;-94
2022/10/31 01:10:01;;;;;;;27.65;14.13;;;12.30;99.90;;;;;;5006690;28;20488;-94
2022/10/31 01:12:27;;;;;;;27.25;14.65;;;12.30;99.90;;;;;;5007377;28;20128;-94
2022/10/31 01:14:52;;;;;;;26.90;12.55;;;12.20;99.90;;;;;;5007516;28;20025;-94
2022/10/31 01:17:18;;;;;;;24.38;15.40;;;12.20;99.90;;;;;;5008017;28;20133;-94
2022/10/31 01:19:44;;;;;;;33.25;15.63;;;12.20;99.90;;;;;;5009001;28;20112;-94
2022/10/31 01:22:10;;;;;;;28.38;15.80;;;12.10;99.90;;;;;;5008667;28;20032;-94
2022/10/31 01:24:35;;;;;;;28.02;15.18;;;12.10;99.90;;;;;;5009002;28;20030;-94
2022/10/31 01:27:01;;;;;;;30.08;15.45;;;12.00;99.90;;;;;;5026351;28;20061;-94
2022/10/31 01:29:27;;;;;;;26.50;13.52;;;12.00;99.90;;;;;;5009744;28;20053;-94
2022/10/31 01:31:52;;;;;;;21.80;11.73;;;11.90;99.90;;;;;;5013036;28;20513;-94
2022/10/31 01:34:18;;;;;;;23.33;14.43;;;11.90;99.90;;;;;;5037051;28;20097;-94
2022/10/31 01:36:46;;;;;;;28.42;14.27;;;11.80;99.90;;;;;;5015326;28;20116;-93
2022/10/31 01:39:14;;;;;;;24.42;13.68;;;11.80;99.90;;;;;;5015456;28;20055;-94
2022/10/31 01:41:43;;;;;;;25.17;13.88;;;11.70;99.90;;;;;;5029585;28;20029;-95
2022/10/31 01:44:15;;;;;;;23.10;13.90;;;11.70;99.90;;;;;;5009145;28;20029;-95
2022/10/31 01:46:53;;;;;;;19.98;12.25;;;11.70;99.90;;;;;;5025314;28;20039;-94
2022/10/31 01:49:19;;;;;;;18.75;11.18;;;11.70;99.90;;;;;;5006274;28;20032;-95
2022/10/31 01:52:06;;;;;;;27.48;13.20;;;11.60;99.90;;;;;;5025393;28;20120;-94
2022/10/31 01:54:36;;;;;;;18.45;11.35;;;11.50;99.90;;;;;;5026323;28;20025;-94
2022/10/31 01:57:04;;;;;;;21.58;11.85;;;11.50;99.90;;;;;;5007907;28;20371;-94
2022/10/31 01:59:33;;;;;;;18.30;10.90;;;11.50;99.90;;;;;;5022326;28;20025;-94
2022/10/31 02:01:59;;;;;;;26.50;12.52;;;11.40;99.90;;;;;;5022730;28;20029;-94
2022/10/31 02:04:25;;;;;;;14.55;10.40;;;11.40;99.90;;;;;;5007816;28;20039;-94
2022/10/31 02:06:56;;;;;;;19.67;10.85;;;11.40;99.90;;;;;;5021883;28;20037;-94
2022/10/31 02:09:23;;;;;;;19.92;12.63;;;11.40;99.90;;;;;;5022978;28;20044;-94
2022/10/31 02:11:52;;;;;;;18.77;11.88;;;11.40;99.90;;;;;;5005401;28;20025;-94
2022/10/31 02:14:18;;;;;;;24.13;12.15;;;11.30;99.90;;;;;;5006242;28;20494;-95
2022/10/31 02:16:43;;;;;;;23.58;13.27;;;11.30;99.90;;;;;;5022928;28;20025;-94
2022/10/31 02:19:14;;;;;;;25.05;12.27;;;11.30;99.90;;;;;;5007083;28;20115;-94
2022/10/31 02:22:02;;;;;;;30.73;13.43;;;11.30;99.90;;;;;;5021923;28;20106;-95
2022/10/31 02:24:45;;;;;;;20.70;11.68;;;11.30;99.90;;;;;;5020842;28;20041;-95
2022/10/31 02:27:26;;;;;;;21.02;11.68;;;11.20;99.90;;;;;;5006765;28;20026;-95
2022/10/31 02:30:18;;;;;;;18.50;11.80;;;11.20;99.90;;;;;;5003696;28;20518;-95
2022/10/31 02:33:03;;;;;;;23.10;13.38;;;11.10;99.90;;;;;;5003841;28;20034;-94
2022/10/31 02:35:47;;;;;;;24.77;14.70;;;11.10;99.90;;;;;;5018763;28;20152;-94
2022/10/31 02:38:42;;;;;;;30.55;17.05;;;11.10;99.90;;;;;;5002957;28;20030;-94
2022/10/31 02:41:32;;;;;;;35.85;18.73;;;11.10;99.90;;;;;;5003031;28;20026;-94
2022/10/31 02:44:09;;;;;;;30.65;16.98;;;11.20;99.90;;;;;;5003617;28;20045;-95
2022/10/31 02:46:48;;;;;;;33.13;18.55;;;11.10;99.90;;;;;;5004830;28;20564;-93
2022/10/31 02:49:27;;;;;;;31.45;18.63;;;11.10;99.90;;;;;;5004343;28;20441;-94
2022/10/31 02:51:53;;;;;;;29.90;17.52;;;11.10;99.90;;;;;;5003095;28;20033;-93
2022/10/31 02:54:23;;;;;;;34.55;19.17;;;11.00;99.90;;;;;;4985312;28;20773;-94
2022/10/31 02:56:52;;;;;;;32.72;17.33;;;11.00;99.90;;;;;;5018403;28;20433;-93
2022/10/31 02:59:18;;;;;;;39.70;19.70;;;11.00;99.90;;;;;;5001543;28;20038;-94
2022/10/31 03:02:02;;;;;;;38.30;20.42;;;11.00;99.90;;;;;;5004141;28;20025;-94
2022/10/31 03:04:59;;;;;;;35.53;19.27;;;11.00;99.90;;;;;;5020116;28;20199;-94
2022/10/31 03:08:00;;;;;;;30.80;19.02;;;11.00;99.90;;;;;;5004386;28;20176;-95
2022/10/31 03:10:47;;;;;;;33.35;19.35;;;10.90;99.90;;;;;;5003461;28;20033;-94
2022/10/31 03:13:32;;;;;;;37.55;19.10;;;10.90;99.90;;;;;;5002421;28;20026;-93
2022/10/31 03:16:39;;;;;;;30.35;18.02;;;10.90;99.90;;;;;;5006197;28;20044;-94
2022/10/31 03:19:11;;;;;;;37.97;22.17;;;10.90;99.90;;;;;;5001006;28;20037;-94
2022/10/31 03:21:44;;;;;;;36.28;19.60;;;10.90;99.90;;;;;;5003117;28;20124;-93
2022/10/31 03:24:11;;;;;;;39.55;20.60;;;10.80;99.90;;;;;;5005398;28;20044;-92
2022/10/31 03:26:51;;;;;;;37.53;21.30;;;10.80;99.90;;;;;;5005596;28;20021;-94
2022/10/31 03:29:21;;;;;;;35.65;21.65;;;10.80;99.90;;;;;;5006159;28;20057;-93
2022/10/31 03:32:05;;;;;;;37.78;21.38;;;10.80;99.90;;;;;;5003983;28;20026;-93
2022/10/31 03:34:31;;;;;;;42.17;21.75;;;10.70;99.90;;;;;;5003201;28;20021;-93
2022/10/31 03:37:00;;;;;;;40.15;21.52;;;10.70;99.90;;;;;;5006211;28;20494;-93
2022/10/31 03:39:27;;;;;;;45.38;22.65;;;10.80;99.90;;;;;;5007860;28;20026;-94
2022/10/31 03:42:18;;;;;;;38.75;22.63;;;10.80;99.90;;;;;;5025146;28;20069;-93
2022/10/31 03:44:49;;;;;;;40.13;22.58;;;10.80;99.90;;;;;;5001455;28;20045;-92
2022/10/31 03:47:15;;;;;;;46.50;23.80;;;10.80;99.90;;;;;;5007273;28;20531;-93
2022/10/31 03:49:41;;;;;;;42.42;23.90;;;10.80;99.90;;;;;;5007403;28;20038;-94
2022/10/31 03:52:26;;;;;;;42.05;23.70;;;10.80;99.90;;;;;;5006850;28;20212;-93
2022/10/31 03:55:05;;;;;;;38.97;22.13;;;10.80;99.90;;;;;;5004929;28;20045;-93
2022/10/31 03:57:41;;;;;;;44.45;23.98;;;10.70;99.90;;;;;;5005278;28;20061;-93
2022/10/31 04:00:12;;;;;;;44.30;22.33;;;10.70;99.90;;;;;;5005489;28;20034;-93
2022/10/31 04:02:42;;;;;;;43.95;23.30;;;10.70;99.90;;;;;;5019654;28;20047;-93
2022/10/31 04:05:10;;;;;;;50.60;24.65;;;10.70;99.90;;;;;;5006507;28;20050;-94
2022/10/31 04:07:41;;;;;;;45.35;24.65;;;10.70;99.90;;;;;;5008557;28;20020;-93
2022/10/31 04:10:12;;;;;;;37.20;23.27;;;10.70;99.90;;;;;;5005962;28;20029;-93
2022/10/31 04:12:41;;;;;;;42.28;24.67;;;10.70;99.90;;;;;;5007195;28;20313;-92
2022/10/31 04:15:09;;;;;;;45.38;23.55;;;10.70;99.90;;;;;;5006578;28;20153;-93
2022/10/31 04:17:38;;;;;;;47.00;23.50;;;10.70;99.90;;;;;;5005679;28;20029;-93
2022/10/31 04:20:05;;;;;;;48.35;24.10;;;10.70;99.90;;;;;;5019354;28;20033;-93
2022/10/31 04:22:31;;;;;;;49.63;25.58;;;10.70;99.90;;;;;;5010119;28;20069;-93
2022/10/31 04:24:56;;;;;;;48.75;25.40;;;10.70;99.90;;;;;;5006861;28;20069;-92
2022/10/31 04:27:22;;;;;;;49.28;24.55;;;10.70;99.90;;;;;;5009292;28;20029;-93
2022/10/31 04:29:48;;;;;;;45.95;24.60;;;10.70;99.90;;;;;;5007779;28;20084;-94
2022/10/31 04:32:13;;;;;;;42.85;23.50;;;10.60;99.90;;;;;;5004327;28;20022;-94
2022/10/31 04:34:39;;;;;;;48.55;24.83;;;10.70;99.90;;;;;;5005963;28;20025;-94
2022/10/31 04:37:04;;;;;;;53.13;24.65;;;10.60;99.90;;;;;;5005909;28;20033;-94
2022/10/31 04:39:30;;;;;;;49.88;25.15;;;10.60;99.90;;;;;;5007949;28;20029;-93
2022/10/31 04:41:56;;;;;;;50.08;25.80;;;10.60;99.90;;;;;;5012184;28;20173;-93
2022/10/31 04:44:21;;;;;;;60.17;25.33;;;10.60;99.90;;;;;;5009155;28;20041;-94
2022/10/31 04:46:47;;;;;;;61.15;25.60;;;10.50;99.90;;;;;;5007772;28;20021;-93
2022/10/31 04:49:13;;;;;;;61.08;26.08;;;10.50;99.90;;;;;;5009594;28;20036;-93
2022/10/31 04:51:38;;;;;;;70.28;26.38;;;10.60;99.90;;;;;;5010544;28;20030;-94
2022/10/31 04:54:04;;;;;;;56.83;26.00;;;10.50;99.90;;;;;;5009835;28;20080;-93
2022/10/31 04:56:30;;;;;;;53.50;27.10;;;10.50;99.90;;;;;;5009107;28;20026;-92
2022/10/31 04:58:55;;;;;;;49.42;24.58;;;10.50;99.90;;;;;;5005270;28;20061;-93
2022/10/31 05:01:21;;;;;;;42.95;25.55;;;10.50;99.90;;;;;;5012759;28;20029;-93
2022/10/31 05:03:46;;;;;;;51.33;25.25;;;10.50;99.90;;;;;;5014464;28;20184;-92
2022/10/31 05:06:12;;;;;;;46.55;24.35;;;10.50;99.90;;;;;;5017749;28;20033;-93
2022/10/31 05:08:38;;;;;;;47.75;25.20;;;10.50;99.90;;;;;;5009834;28;20390;-92
2022/10/31 05:11:04;;;;;;;56.03;26.23;;;10.50;99.90;;;;;;5011581;28;20560;-93
2022/10/31 05:13:30;;;;;;;45.30;25.30;;;10.50;99.90;;;;;;5008462;28;20026;-92
2022/10/31 05:15:56;;;;;;;51.58;25.15;;;10.50;99.90;;;;;;5009507;28;20037;-92
2022/10/31 05:18:21;;;;;;;49.10;26.23;;;10.40;99.90;;;;;;5009810;28;20026;-93
2022/10/31 05:20:47;;;;;;;55.17;26.70;;;10.40;99.90;;;;;;5013256;28;20029;-93
2022/10/31 05:23:12;;;;;;;52.75;27.42;;;10.40;99.90;;;;;;5011207;28;20029;-93
2022/10/31 05:25:40;;;;;;;60.15;27.50;;;10.50;99.90;;;;;;5012631;28;20030;-93
2022/10/31 05:28:05;;;;;;;48.17;26.25;;;10.40;99.90;;;;;;5009741;28;20679;-92
2022/10/31 05:30:32;;;;;;;54.33;26.90;;;10.40;99.90;;;;;;5012710;28;20053;-93
2022/10/31 05:32:58;;;;;;;53.45;26.60;;;10.40;99.90;;;;;;5010012;28;20026;-93
2022/10/31 05:35:29;;;;;;;54.17;26.42;;;10.40;99.90;;;;;;5017897;28;20049;-94
2022/10/31 05:37:54;;;;;;;52.88;26.13;;;10.40;99.90;;;;;;5013770;28;20101;-94
2022/10/31 05:40:21;;;;;;;50.00;26.80;;;10.40;99.90;;;;;;5027970;28;20030;-93
2022/10/31 05:42:47;;;;;;;52.83;27.05;;;10.40;99.90;;;;;;5016509;28;20028;-93
2022/10/31 05:45:15;;;;;;;48.75;26.83;;;10.40;99.90;;;;;;5013463;28;20045;-92
2022/10/31 05:47:41;;;;;;;52.35;26.67;;;10.40;99.90;;;;;;5013067;28;20053;-92
2022/10/31 05:50:08;;;;;;;47.83;25.42;;;10.40;99.90;;;;;;5012308;28;20030;-93
2022/10/31 05:52:34;;;;;;;54.25;26.42;;;10.40;99.90;;;;;;5010299;28;20088;-93
2022/10/31 05:54:59;;;;;;;53.58;27.60;;;10.40;99.90;;;;;;5011475;28;20030;-93
2022/10/31 05:57:25;;;;;;;52.70;27.13;;;10.30;99.90;;;;;;5017825;28;20067;-93
2022/10/31 05:59:53;;;;;;;60.67;27.35;;;10.30;99.90;;;;;;5012495;28;20031;-93
2022/10/31 06:02:20;;;;;;;55.45;24.88;;;10.30;99.90;;;;;;5009309;28;20018;-94
2022/10/31 06:04:45;;;;;;;51.67;25.38;;;10.30;99.90;;;;;;5011517;28;20038;-94
2022/10/31 06:07:11;;;;;;;46.88;24.77;;;10.30;99.90;;;;;;5011725;28;20040;-95
2022/10/31 06:09:37;;;;;;;51.90;27.95;;;10.20;99.90;;;;;;5007757;28;20026;-93
2022/10/31 06:12:02;;;;;;;46.50;25.92;;;10.20;99.90;;;;;;5006201;28;20034;-93
2022/10/31 06:14:28;;;;;;;54.83;27.02;;;10.20;99.90;;;;;;5005378;28;20157;-92
2022/10/31 06:16:57;;;;;;;56.92;26.83;;;10.20;99.90;;;;;;5009327;28;20022;-93
2022/10/31 06:19:22;;;;;;;56.13;26.80;;;10.20;99.90;;;;;;5011248;28;20041;-93
2022/10/31 06:21:48;;;;;;;58.20;27.85;;;10.30;99.90;;;;;;5017743;28;20021;-93
2022/10/31 06:24:14;;;;;;;58.95;26.83;;;10.20;99.90;;;;;;5011920;28;20048;-94
2022/10/31 06:26:40;;;;;;;47.83;26.30;;;10.20;99.90;;;;;;5017451;28;20536;-94
2022/10/31 06:29:06;;;;;;;47.53;27.63;;;10.20;99.90;;;;;;5015803;28;20039;-93
2022/10/31 06:31:31;;;;;;;46.90;26.08;;;10.20;99.90;;;;;;5015114;28;20386;-93
2022/10/31 06:33:57;;;;;;;53.58;27.63;;;10.20;99.90;;;;;;5020574;28;20486;-94
2022/10/31 06:36:23;;;;;;;59.83;28.10;;;10.20;99.90;;;;;;5014566;28;20076;-95
2022/10/31 06:38:48;;;;;;;55.17;29.23;;;10.20;99.90;;;;;;5032890;28;20037;-94
2022/10/31 06:41:14;;;;;;;55.95;28.95;;;10.20;99.90;;;;;;5019547;28;20036;-93
2022/10/31 06:43:39;;;;;;;63.22;31.08;;;10.20;99.90;;;;;;5011231;28;20037;-94
2022/10/31 06:46:05;;;;;;;61.95;29.70;;;10.20;99.90;;;;;;5014404;28;20030;-93
2022/10/31 06:48:31;;;;;;;57.72;29.75;;;10.20;99.90;;;;;;5014648;28;20144;-92
2022/10/31 06:50:59;;;;;;;57.00;30.38;;;10.30;99.90;;;;;;5010822;28;20160;-93
2022/10/31 06:53:24;;;;;;;56.22;28.85;;;10.30;99.90;;;;;;5012424;28;20025;-93
2022/10/31 06:55:50;;;;;;;63.88;30.83;;;10.30;99.90;;;;;;5012802;28;20087;-92
2022/10/31 06:58:16;;;;;;;70.95;31.10;;;10.30;99.90;;;;;;5034098;28;20056;-93
2022/10/31 07:00:41;;;;;;;59.35;31.33;;;10.30;99.90;;;;;;5025564;28;20393;-93
2022/10/31 07:03:11;;;;;;;54.15;31.67;;;10.30;99.90;;;;;;5018530;28;20439;-93
2022/10/31 07:05:37;;;;;;;68.10;29.05;;;10.30;99.90;;;;;;5015368;28;20099;-93
2022/10/31 07:08:06;;;;;;;211.50;22.75;;;10.30;99.90;;;;;;5034414;28;20029;-93
2022/10/31 07:10:33;;;;;;;148.00;21.73;;;10.30;99.90;;;;;;5015587;28;20029;-93
2022/10/31 07:13:01;;;;;;;73.30;23.02;;;10.30;99.90;;;;;;5020207;28;20076;-93
2022/10/31 07:15:28;;;;;;;128.02;23.15;;;10.20;99.90;;;;;;5013190;28;20021;-93
2022/10/31 07:17:58;;;;;;;113.55;26.33;;;10.30;99.90;;;;;;5030234;28;20036;-92
2022/10/31 07:20:24;;;;;;;50.25;25.50;;;10.30;99.90;;;;;;5032481;28;20619;-93
2022/10/31 07:22:50;;;;;;;53.97;29.17;;;10.30;99.90;;;;;;5011648;28;20033;-94
2022/10/31 07:25:15;;;;;;;55.33;28.10;;;10.30;99.90;;;;;;5015006;28;20450;-93
2022/10/31 07:27:42;;;;;;;64.10;30.08;;;10.40;99.90;;;;;;5013416;28;20030;-93
2022/10/31 07:30:11;;;;;;;68.28;33.75;;;10.50;99.90;;;;;;5029305;28;20076;-92
2022/10/31 07:32:47;;;;;;;75.30;33.42;;;10.60;99.90;;;;;;5015383;28;20061;-94
2022/10/31 07:35:19;;;;;;;69.93;33.42;;;10.70;99.90;;;;;;5013662;28;20025;-95
2022/10/31 07:37:44;;;;;;;64.85;33.63;;;10.80;99.90;;;;;;5014219;28;20026;-94
2022/10/31 07:40:10;;;;;;;62.88;33.15;;;10.80;99.90;;;;;;5015027;28;20025;-94
2022/10/31 07:42:41;;;;;;;66.93;35.05;;;11.00;99.90;;;;;;5033079;28;20037;-94
2022/10/31 07:45:09;;;;;;;67.65;35.10;;;11.10;99.90;;;;;;5015926;28;20041;-94
2022/10/31 07:47:42;;;;;;;78.68;39.00;;;11.10;99.90;;;;;;5031253;28;20028;-94
2022/10/31 07:50:12;;;;;;;78.43;39.75;;;11.30;99.90;;;;;;5012301;28;20061;-95
2022/10/31 07:52:38;;;;;;;76.43;39.83;;;11.30;99.90;;;;;;5017117;28;20025;-93
2022/10/31 07:55:05;;;;;;;74.03;39.75;;;11.50;99.90;;;;;;5022777;28;20484;-94
2022/10/31 07:57:31;;;;;;;78.05;40.40;;;11.70;99.90;;;;;;5016253;28;20097;-94
2022/10/31 07:59:56;;;;;;;76.10;41.45;;;11.80;99.90;;;;;;5030770;28;20056;-94
2022/10/31 08:02:22;;;;;;;72.18;40.72;;;11.90;99.90;;;;;;5015213;28;20105;-94
2022/10/31 08:04:48;;;;;;;78.57;43.30;;;12.10;99.90;;;;;;5026887;28;20084;-94
2022/10/31 08:07:14;;;;;;;78.85;41.67;;;12.20;99.90;;;;;;5016783;28;20474;-94
2022/10/31 08:09:40;;;;;;;78.43;43.22;;;12.40;99.90;;;;;;5010781;28;20040;-95
2022/10/31 08:12:05;;;;;;;77.88;43.78;;;12.50;99.90;;;;;;5012265;28;20025;-94
2022/10/31 08:14:31;;;;;;;84.53;44.30;;;12.60;99.90;;;;;;5013132;28;20026;-94
2022/10/31 08:16:57;;;;;;;71.15;43.47;;;12.70;99.90;;;;;;5033574;28;20033;-94
2022/10/31 08:19:22;;;;;;;77.72;43.78;;;12.90;99.90;;;;;;5014830;28;20099;-94
2022/10/31 08:21:52;;;;;;;75.18;43.53;;;12.90;99.90;;;;;;5014032;28;20025;-94
2022/10/31 08:24:18;;;;;;;74.65;44.08;;;13.00;99.90;;;;;;5019135;28;20029;-95
2022/10/31 08:26:43;;;;;;;79.25;41.35;;;13.10;99.90;;;;;;5018319;28;20061;-94
2022/10/31 08:29:09;;;;;;;75.72;42.60;;;13.20;99.90;;;;;;5007110;28;20061;-95
2022/10/31 08:31:35;;;;;;;78.97;40.50;;;13.30;99.90;;;;;;5011233;28;20033;-94
2022/10/31 08:34:01;;;;;;;68.30;40.00;;;13.30;99.90;;;;;;5016744;28;20037;-94
2022/10/31 08:36:27;;;;;;;64.85;36.60;;;13.50;99.90;;;;;;5013897;28;20437;-95
2022/10/31 08:38:53;;;;;;;62.72;36.75;;;13.60;99.90;;;;;;5014493;28;20029;-94
2022/10/31 08:41:18;;;;;;;71.25;38.97;;;13.70;99.90;;;;;;5029151;28;20029;-93
2022/10/31 08:43:44;;;;;;;64.93;36.63;;;13.90;99.90;;;;;;5021802;28;20076;-91
2022/10/31 08:46:09;;;;;;;58.78;37.75;;;14.00;99.90;;;;;;5016175;28;20116;-94
2022/10/31 08:48:35;;;;;;;61.45;35.22;;;14.10;99.90;;;;;;5014073;28;20435;-91
2022/10/31 08:51:01;;;;;;;60.70;35.28;;;14.20;99.90;;;;;;5014629;28;20069;-93
2022/10/31 08:53:26;;;;;;;61.53;33.90;;;14.30;99.90;;;;;;5030795;28;20361;-93
2022/10/31 08:55:55;;;;;;;60.72;34.38;;;14.30;99.90;;;;;;5012156;28;20029;-93
2022/10/31 08:58:22;;;;;;;57.85;32.45;;;14.40;99.90;;;;;;5016149;28;20029;-93
2022/10/31 09:00:50;;;;;;;54.97;30.75;;;14.40;99.90;;;;;;5013780;28;20026;-92
2022/10/31 09:03:17;;;;;;;46.63;28.25;;;14.40;99.90;;;;;;5013635;28;20026;-93
2022/10/31 09:05:43;;;;;;;43.92;26.17;;;14.40;99.90;;;;;;5035399;28;20064;-94
2022/10/31 09:08:09;;;;;;;44.60;25.95;;;14.40;99.90;;;;;;5020859;28;20397;-94
2022/10/31 09:10:36;;;;;;;44.80;25.60;;;14.40;99.90;;;;;;5030991;28;20040;-94
2022/10/31 09:13:08;;;;;;;36.78;24.15;;;14.40;99.90;;;;;;5032911;28;20024;-94
2022/10/31 09:15:39;;;;;;;39.22;23.27;;;14.50;99.90;;;;;;5010191;28;20025;-93
2022/10/31 09:18:06;;;;;;;39.28;23.10;;;14.60;99.90;;;;;;5013892;28;20057;-93
2022/10/31 09:20:34;;;;;;;38.55;22.67;;;14.60;99.90;;;;;;5030534;28;20033;-94
2022/10/31 09:23:02;;;;;;;36.40;22.27;;;14.70;99.90;;;;;;5016472;28;20033;-95
2022/10/31 09:25:28;;;;;;;34.38;20.75;;;14.80;99.90;;;;;;5012321;28;20501;-94
2022/10/31 09:27:58;;;;;;;32.15;20.33;;;14.90;99.90;;;;;;5037069;28;20027;-93
2022/10/31 09:30:24;;;;;;;34.35;19.77;;;14.90;99.90;;;;;;5016067;28;20126;-93
2022/10/31 09:32:58;;;;;;;37.95;21.33;;;15.10;99.90;;;;;;5015203;28;20482;-94
2022/10/31 09:35:24;;;;;;;36.58;22.08;;;15.10;99.90;;;;;;5034239;28;20100;-93
2022/10/31 09:38:18;;;;;;;36.58;21.33;;;15.20;99.90;;;;;;5016672;28;20022;-94
2022/10/31 09:41:10;;;;;;;41.08;22.52;;;15.40;99.90;;;;;;5031945;28;20025;-93
2022/10/31 09:43:56;;;;;;;35.50;21.25;;;15.50;99.90;;;;;;5020667;28;20037;-93
2022/10/31 09:46:35;;;;;;;32.92;20.13;;;15.50;99.90;;;;;;5030691;28;20064;-94
2022/10/31 09:49:30;;;;;;;37.95;23.10;;;15.50;99.90;;;;;;5017819;28;20125;-95
2022/10/31 09:52:22;;;;;;;45.35;24.88;;;15.60;99.90;;;;;;5024491;28;20029;-94
2022/10/31 09:54:59;;;;;;;41.67;24.25;;;15.60;99.90;;;;;;5010008;28;20037;-94
2022/10/31 09:57:29;;;;;;;45.30;24.77;;;15.70;99.90;;;;;;5021104;28;20065;-93
2022/10/31 09:59:55;;;;;;;50.40;27.15;;;15.70;99.90;;;;;;5025866;28;20040;-94
2022/10/31 10:02:40;;;;;;;45.47;26.73;;;15.80;99.90;;;;;;5038484;28;20018;-94
2022/10/31 10:05:16;;;;;;;49.75;26.65;;;15.80;99.90;;;;;;5016394;28;20037;-94
2022/10/31 10:08:01;;;;;;;55.22;35.65;;;15.90;99.90;;;;;;5017916;28;20041;-93
2022/10/31 10:10:49;;;;;;;48.42;26.88;;;15.90;99.90;;;;;;5029210;28;20022;-91
2022/10/31 10:13:52;;;;;;;51.03;28.83;;;15.90;99.90;;;;;;5030994;28;20032;-93
2022/10/31 10:16:48;;;;;;;58.10;27.55;;;15.90;99.90;;;;;;5027733;28;20028;-94
2022/10/31 10:19:23;;;;;;;49.95;27.02;;;16.00;99.90;;;;;;5012686;28;20044;-94
2022/10/31 10:22:05;;;;;;;45.03;26.52;;;16.10;99.90;;;;;;5015240;28;20049;-93
2022/10/31 10:25:00;;;;;;;46.30;26.83;;;16.10;99.90;;;;;;5030399;28;20033;-94
2022/10/31 10:27:47;;;;;;;44.35;26.80;;;16.20;99.90;;;;;;5015898;28;20037;-94
2022/10/31 10:30:22;;;;;;;48.55;25.92;;;16.20;99.90;;;;;;5019781;28;20061;-94
2022/10/31 10:32:58;;;;;;;46.88;26.55;;;16.20;99.90;;;;;;5016407;28;20022;-93
2022/10/31 10:35:42;;;;;;;46.30;26.10;;;16.10;99.90;;;;;;5015089;28;20688;-93
2022/10/31 10:38:28;;;;;;;48.15;26.42;;;16.10;99.90;;;;;;5015382;28;20034;-93
2022/10/31 10:40:54;;;;;;;47.97;26.90;;;16.10;99.90;;;;;;5029956;28;20064;-94
2022/10/31 10:43:32;;;;;;;50.22;26.17;;;16.10;99.90;;;;;;5019976;28;20044;-93
2022/10/31 10:49:04;;;;;;;49.47;27.27;;;16.30;99.90;;;;;;5038544;28;20072;-94
2022/10/31 10:51:41;;;;;;;45.45;27.08;;;16.40;99.90;;;;;;5038420;28;20104;-95
2022/10/31 10:54:41;;;;;;;48.13;27.58;;;16.50;99.90;;;;;;5018736;28;20485;-95
2022/10/31 10:57:21;;;;;;;50.33;26.10;;;16.60;99.90;;;;;;5017109;28;20491;-94
2022/10/31 10:59:48;;;;;;;46.92;26.77;;;16.70;99.90;;;;;;5032897;28;20169;-94
2022/10/31 11:02:22;;;;;;;47.25;26.75;;;16.70;99.90;;;;;;5019764;28;20022;-94
2022/10/31 11:04:51;;;;;;;46.10;25.77;;;16.70;99.90;;;;;;5018805;28;20037;-94
2022/10/31 11:07:17;;;;;;;51.90;25.52;;;16.80;99.90;;;;;;5001130;28;20033;-93
2022/10/31 11:09:43;;;;;;;45.85;25.92;;;16.80;99.90;;;;;;5036920;28;20153;-94
2022/10/31 11:12:32;;;;;;;47.17;24.73;;;16.90;99.90;;;;;;5016373;28;20068;-94
2022/10/31 11:15:03;;;;;;;46.25;26.05;;;16.90;99.90;;;;;;5015171;28;20033;-94
2022/10/31 11:17:36;;;;;;;48.63;25.85;;;17.00;99.90;;;;;;5019300;28;20072;-95
2022/10/31 11:20:35;;;;;;;43.35;26.15;;;17.00;99.90;;;;;;5012066;28;20026;-95
2022/10/31 11:23:20;;;;;;;47.38;25.50;;;17.10;99.90;;;;;;5026562;28;20494;-95
2022/10/31 11:25:58;;;;;;;44.67;25.25;;;17.10;99.90;;;;;;5030768;28;20060;-95
2022/10/31 11:28:24;;;;;;;47.33;26.90;;;17.20;99.90;;;;;;5032374;28;20080;-94
2022/10/31 11:30:55;;;;;;;50.25;27.17;;;17.30;99.90;;;;;;5009218;28;20048;-95
2022/10/31 11:33:49;;;;;;;46.27;26.13;;;17.30;99.90;;;;;;5014047;28;20034;-93
2022/10/31 11:36:30;;;;;;;49.53;27.17;;;17.40;99.90;;;;;;5011225;28;20287;-95
2022/10/31 11:38:58;;;;;;;43.53;24.45;;;17.50;99.90;;;;;;5016028;28;20033;-95
2022/10/31 11:41:33;;;;;;;47.22;25.85;;;17.60;99.90;;;;;;5015982;28;20125;-95
2022/10/31 11:44:10;;;;;;;46.75;24.88;;;17.70;99.90;;;;;;5011299;28;20064;-93
2022/10/31 11:46:40;;;;;;;46.83;25.80;;;17.70;99.90;;;;;;5008465;28;20036;-93
2022/10/31 11:49:15;;;;;;;44.05;24.73;;;17.80;99.90;;;;;;5010733;28;20026;-95
2022/10/31 11:51:41;;;;;;;43.80;24.98;;;17.80;99.90;;;;;;5011824;28;20026;-94
2022/10/31 11:54:21;;;;;;;42.20;25.30;;;17.80;99.90;;;;;;5012118;28;20054;-94
2022/10/31 11:56:46;;;;;;;44.78;23.33;;;17.90;99.90;;;;;;5011877;28;20108;-94
2022/10/31 11:59:21;;;;;;;45.75;26.58;;;17.90;99.90;;;;;;5015078;28;20065;-94
2022/10/31 12:01:49;;;;;;;45.08;24.15;;;18.00;99.90;;;;;;5031694;28;20111;-94
2022/10/31 12:04:16;;;;;;;42.97;24.27;;;18.00;99.90;;;;;;5016665;28;20121;-94
2022/10/31 12:06:45;;;;;;;45.42;24.92;;;18.20;99.90;;;;;;5015381;28;20112;-95
2022/10/31 12:09:29;;;;;;;38.90;23.00;;;18.20;99.90;;;;;;5012022;28;20113;-94
2022/10/31 12:12:17;;;;;;;49.00;24.70;;;18.30;99.90;;;;;;5014194;28;20026;-94
2022/10/31 12:14:54;;;;;;;39.08;22.48;;;18.40;99.90;;;;;;5015219;28;20073;-94
2022/10/31 12:17:25;;;;;;;37.63;22.23;;;18.50;99.90;;;;;;5013248;28;20026;-94
2022/10/31 12:19:59;;;;;;;37.20;21.17;;;18.50;99.90;;;;;;5013699;28;20096;-94
2022/10/31 12:22:46;;;;;;;41.92;22.52;;;18.60;99.90;;;;;;5011439;28;20030;-94
2022/10/31 12:25:18;;;;;;;34.65;21.42;;;18.70;99.90;;;;;;5037755;28;20064;-94
2022/10/31 12:27:43;;;;;;;35.72;21.42;;;18.80;99.90;;;;;;5030875;28;20084;-96
2022/10/31 12:30:18;;;;;;;28.02;19.00;;;18.90;99.90;;;;;;5023210;28;20415;-94
2022/10/31 12:33:08;;;;;;;36.63;20.63;;;18.90;99.90;;;;;;5015094;28;20029;-95
2022/10/31 12:35:43;;;;;;;31.73;19.25;;;19.00;99.90;;;;;;5026116;28;20504;-94
2022/10/31 12:38:38;;;;;;;29.92;18.33;;;19.00;99.90;;;;;;5014310;28;20484;-94
2022/10/31 12:41:28;;;;;;;30.10;18.88;;;19.00;99.90;;;;;;5032556;28;20156;-93
2022/10/31 12:44:26;;;;;;;36.33;18.38;;;18.90;99.90;;;;;;5014562;28;20030;-95
2022/10/31 12:47:21;;;;;;;30.23;17.35;;;18.90;99.90;;;;;;4998557;28;20145;-95
2022/10/31 12:50:06;;;;;;;30.67;17.70;;;18.80;99.90;;;;;;5012369;28;20341;-95